Time;durP1;ratioP1;P1;durP2;ratioP2;P2;SDS_P1;SDS_P2;PMS_P1;PMS_P2;Temp;Humidity;BMP_temperature;BMP_pressure;BME280_temperature;BME280_humidity;BME280_pressure;Samples;Min_cycle;Max_cycle;Signal;HPM_P1;HPM_P2
2022/04/10 00:00:17;;;;;;;5.78;1.55;;;;;;;;;;5122768;27;20080;-71
2022/04/10 00:02:45;;;;;;;4.97;1.52;;;;;;;;;;5126725;27;20073;-71
2022/04/10 00:05:15;;;;;;;3.60;1.77;;;;;;;;;;5113640;28;20062;-71
2022/04/10 00:07:43;;;;;;;5.97;1.60;;;;;;;;;;5125415;27;20130;-71
2022/04/10 00:10:11;;;;;;;2.92;1.70;;;;;;;;;;5118234;27;20071;-71
2022/04/10 00:12:40;;;;;;;6.97;2.20;;;;;;;;;;5121988;27;20463;-71
2022/04/10 00:15:09;;;;;;;4.15;1.55;;;;;;;;;;5130894;27;20111;-71
2022/04/10 00:17:37;;;;;;;5.38;1.65;;;;;;;;;;5129227;27;20051;-71
2022/04/10 00:20:06;;;;;;;2.63;1.23;;;;;;;;;;5118865;27;20560;-71
2022/04/10 00:22:41;;;;;;;3.70;1.77;;;;;;;;;;5130451;27;20103;-71
2022/04/10 00:25:09;;;;;;;;;;;;;;;;;;5127462;27;20049;-71
2022/04/10 00:27:38;;;;;;;6.30;1.95;;;;;;;;;;5128675;27;19930;-71
2022/04/10 00:30:06;;;;;;;3.63;1.58;;;;;;;;;;5121784;27;20082;-71
2022/04/10 00:32:35;;;;;;;5.00;1.70;;;;;;;;;;5125621;27;20058;-71
2022/04/10 00:35:05;;;;;;;4.22;1.95;;;;;;;;;;5113372;27;20122;-71
2022/04/10 00:37:34;;;;;;;4.57;1.90;;;;;;;;;;5121323;27;20492;-71
2022/04/10 00:40:04;;;;;;;4.82;2.05;;;;;;;;;;5116900;27;20050;-72
2022/04/10 00:42:32;;;;;;;2.55;1.60;;;;;;;;;;5125832;27;20043;-71
2022/04/10 00:45:01;;;;;;;3.17;2.08;;;;;;;;;;5117820;27;20525;-72
2022/04/10 00:47:29;;;;;;;4.55;1.95;;;;;;;;;;5123378;27;20039;-71
2022/04/10 00:49:58;;;;;;;8.75;1.75;;;;;;;;;;5130058;27;20061;-71
2022/04/10 00:52:27;;;;;;;4.47;2.03;;;;;;;;;;5127410;27;20050;-71
2022/04/10 00:54:56;;;;;;;5.35;1.83;;;;;;;;;;5129451;27;20855;-71
2022/04/10 00:57:26;;;;;;;4.32;1.92;;;;;;;;;;5127195;27;20376;-72
2022/04/10 00:59:54;;;;;;;3.55;1.95;;;;;;;;;;5128794;27;20064;-72
2022/04/10 01:02:23;;;;;;;1.67;1.40;;;;;;;;;;5115832;27;20049;-71
2022/04/10 01:04:51;;;;;;;3.83;1.92;;;;;;;;;;5124100;27;20047;-71
2022/04/10 01:07:20;;;;;;;3.63;2.00;;;;;;;;;;5128498;27;20120;-71
2022/04/10 01:09:48;;;;;;;6.68;1.77;;;;;;;;;;5119498;27;20048;-71
2022/04/10 01:12:17;;;;;;;5.80;1.67;;;;;;;;;;5112590;27;20050;-71
2022/04/10 01:14:46;;;;;;;4.65;2.35;;;;;;;;;;5128185;27;20039;-70
2022/04/10 01:17:14;;;;;;;3.40;2.13;;;;;;;;;;5128618;27;20100;-71
2022/04/10 01:19:43;;;;;;;4.53;2.00;;;;;;;;;;5127011;27;20051;-72
2022/04/10 01:22:14;;;;;;;3.30;1.98;;;;;;;;;;5120091;27;20078;-70
2022/04/10 01:24:43;;;;;;;3.67;1.88;;;;;;;;;;5124254;27;20074;-71
2022/04/10 01:27:12;;;;;;;4.63;2.40;;;;;;;;;;5130130;27;20505;-71
2022/04/10 01:29:40;;;;;;;3.67;1.90;;;;;;;;;;5110013;28;20058;-70
2022/04/10 01:32:09;;;;;;;3.38;1.73;;;;;;;;;;5124261;27;20051;-70
2022/04/10 01:34:39;;;;;;;3.67;2.03;;;;;;;;;;5120571;27;20055;-70
2022/04/10 01:37:07;;;;;;;8.00;3.15;;;;;;;;;;5116583;27;20057;-71
2022/04/10 01:39:35;;;;;;;5.43;2.50;;;;;;;;;;5119186;27;20147;-70
2022/04/10 01:42:05;;;;;;;4.07;2.50;;;;;;;;;;5129908;27;20039;-71
2022/04/10 01:44:41;;;;;;;2.85;1.80;;;;;;;;;;5126959;27;20120;-70
2022/04/10 01:47:09;;;;;;;5.45;2.08;;;;;;;;;;5111277;27;20048;-70
2022/04/10 01:49:38;;;;;;;4.72;2.33;;;;;;;;;;5113714;27;20051;-71
2022/04/10 01:52:06;;;;;;;2.90;1.83;;;;;;;;;;5129749;27;20043;-71
2022/04/10 01:54:34;;;;;;;2.25;1.60;;;;;;;;;;5124582;27;20092;-72
2022/04/10 01:57:03;;;;;;;3.10;1.70;;;;;;;;;;5122408;27;20398;-72
2022/04/10 01:59:33;;;;;;;7.60;2.15;;;;;;;;;;5116552;27;20043;-72
2022/04/10 02:02:01;;;;;;;5.55;2.13;;;;;;;;;;5116247;27;20138;-72
2022/04/10 02:04:30;;;;;;;4.00;2.40;;;;;;;;;;5123247;27;20051;-72
2022/04/10 02:06:58;;;;;;;4.40;2.15;;;;;;;;;;5128684;27;20077;-72
2022/04/10 02:09:26;;;;;;;5.65;1.98;;;;;;;;;;5113879;27;20138;-72
2022/04/10 02:11:54;;;;;;;3.92;2.15;;;;;;;;;;5114867;27;20035;-71
2022/04/10 02:14:22;;;;;;;6.35;2.67;;;;;;;;;;5120550;27;20039;-71
2022/04/10 02:16:52;;;;;;;9.55;3.33;;;;;;;;;;5129847;27;20039;-71
2022/04/10 02:19:20;;;;;;;5.25;2.30;;;;;;;;;;5121145;27;20050;-71
2022/04/10 02:21:49;;;;;;;6.50;2.53;;;;;;;;;;5117987;27;20129;-71
2022/04/10 02:24:17;;;;;;;4.13;2.20;;;;;;;;;;5121201;27;20494;-71
2022/04/10 02:26:45;;;;;;;6.40;2.67;;;;;;;;;;5118236;27;20044;-70
2022/04/10 02:29:13;;;;;;;3.33;2.03;;;;;;;;;;5124529;27;20047;-71
2022/04/10 02:31:41;;;;;;;4.95;2.20;;;;;;;;;;5125045;27;20039;-70
2022/04/10 02:34:11;;;;;;;3.15;1.85;;;;;;;;;;5118280;27;20051;-71
2022/04/10 02:36:39;;;;;;;3.70;1.80;;;;;;;;;;5110326;27;20122;-70
2022/04/10 02:39:08;;;;;;;3.70;1.60;;;;;;;;;;5113707;27;20061;-71
2022/04/10 02:41:36;;;;;;;4.22;2.08;;;;;;;;;;5127771;27;20126;-70
2022/04/10 02:44:05;;;;;;;2.88;1.77;;;;;;;;;;5123846;27;20130;-70
2022/04/10 02:46:33;;;;;;;6.00;1.83;;;;;;;;;;5121720;27;20134;-70
2022/04/10 02:49:01;;;;;;;6.03;2.00;;;;;;;;;;5127825;27;20050;-70
2022/04/10 02:51:31;;;;;;;2.90;2.00;;;;;;;;;;5128647;27;20070;-70
2022/04/10 02:53:59;;;;;;;5.13;2.47;;;;;;;;;;5122409;27;20043;-71
2022/04/10 02:56:27;;;;;;;4.35;1.58;;;;;;;;;;5115876;27;20331;-70
2022/04/10 02:58:55;;;;;;;3.53;1.80;;;;;;;;;;5124376;27;20397;-71
2022/04/10 03:01:24;;;;;;;6.72;1.90;;;;;;;;;;5117226;27;20055;-71
2022/04/10 03:03:53;;;;;;;6.22;2.03;;;;;;;;;;5110176;28;20093;-70
2022/04/10 03:06:21;;;;;;;4.22;1.75;;;;;;;;;;5110559;27;20139;-70
2022/04/10 03:08:51;;;;;;;6.13;2.22;;;;;;;;;;5112625;27;20054;-70
2022/04/10 03:11:19;;;;;;;5.10;1.98;;;;;;;;;;5120605;27;20047;-70
2022/04/10 03:13:47;;;;;;;4.55;1.77;;;;;;;;;;5118221;27;20050;-70
2022/04/10 03:16:16;;;;;;;2.90;1.83;;;;;;;;;;5120928;27;20570;-70
2022/04/10 03:18:44;;;;;;;3.15;1.70;;;;;;;;;;5118158;27;20066;-70
2022/04/10 03:21:12;;;;;;;1.95;1.52;;;;;;;;;;5109301;28;20070;-69
2022/04/10 03:23:41;;;;;;;2.55;1.77;;;;;;;;;;5119510;28;20051;-69
2022/04/10 03:26:10;;;;;;;3.05;1.40;;;;;;;;;;5108913;28;20554;-69
2022/04/10 03:28:39;;;;;;;6.70;2.25;;;;;;;;;;5113601;28;20050;-69
2022/04/10 03:31:07;;;;;;;5.72;1.45;;;;;;;;;;5124580;28;20049;-69
2022/04/10 03:33:35;;;;;;;4.40;1.67;;;;;;;;;;5121282;28;20077;-69
2022/04/10 03:36:06;;;;;;;4.10;1.77;;;;;;;;;;5109905;28;20150;-69
2022/04/10 03:38:34;;;;;;;3.22;1.73;;;;;;;;;;5110534;28;20097;-69
2022/04/10 03:41:04;;;;;;;4.65;2.28;;;;;;;;;;5128144;28;20138;-69
2022/04/10 03:43:34;;;;;;;4.13;2.15;;;;;;;;;;5118727;28;20491;-70
2022/04/10 03:46:05;;;;;;;5.70;2.20;;;;;;;;;;5126343;28;20053;-69
2022/04/10 03:48:33;;;;;;;3.47;1.70;;;;;;;;;;5111650;28;20044;-69
2022/04/10 03:51:02;;;;;;;2.75;1.90;;;;;;;;;;5115363;28;20082;-70
2022/04/10 03:53:34;;;;;;;5.43;1.67;;;;;;;;;;5118339;28;20054;-70
2022/04/10 03:56:04;;;;;;;4.85;1.95;;;;;;;;;;5127509;28;20130;-69
2022/04/10 03:58:34;;;;;;;5.05;2.45;;;;;;;;;;5118523;28;20075;-69
2022/04/10 04:01:02;;;;;;;2.80;1.63;;;;;;;;;;5124451;28;20566;-69
2022/04/10 04:03:33;;;;;;;3.40;1.90;;;;;;;;;;5109770;28;20055;-70
2022/04/10 04:06:01;;;;;;;8.45;1.88;;;;;;;;;;5111517;28;20138;-70
2022/04/10 04:08:29;;;;;;;3.42;2.05;;;;;;;;;;5115347;28;20122;-70
2022/04/10 04:10:58;;;;;;;6.47;2.13;;;;;;;;;;5123241;28;20047;-70
2022/04/10 04:13:26;;;;;;;4.68;2.42;;;;;;;;;;5120976;28;20046;-70
2022/04/10 04:15:56;;;;;;;3.40;2.30;;;;;;;;;;5126205;28;20044;-70
2022/04/10 04:18:24;;;;;;;4.03;1.98;;;;;;;;;;5109190;28;20048;-69
2022/04/10 04:20:52;;;;;;;5.18;2.00;;;;;;;;;;5122022;28;20553;-70
2022/04/10 04:23:21;;;;;;;4.00;2.45;;;;;;;;;;5128705;28;20125;-70
2022/04/10 04:25:49;;;;;;;4.63;2.13;;;;;;;;;;5122603;28;20134;-70
2022/04/10 04:28:18;;;;;;;5.57;2.30;;;;;;;;;;5119828;28;20051;-69
2022/04/10 04:30:46;;;;;;;4.88;1.80;;;;;;;;;;5109196;28;20053;-69
2022/04/10 04:33:17;;;;;;;7.30;2.30;;;;;;;;;;5119284;28;20134;-69
2022/04/10 04:35:45;;;;;;;7.28;2.33;;;;;;;;;;5110330;28;20130;-69
2022/04/10 04:38:13;;;;;;;2.83;1.77;;;;;;;;;;5110595;28;20054;-70
2022/04/10 04:40:41;;;;;;;9.02;2.83;;;;;;;;;;5113085;27;20154;-69
2022/04/10 04:43:10;;;;;;;4.85;2.15;;;;;;;;;;5112870;28;20138;-69
2022/04/10 04:45:38;;;;;;;4.40;2.30;;;;;;;;;;5122566;27;20511;-69
2022/04/10 04:48:06;;;;;;;5.65;2.30;;;;;;;;;;5130434;27;20131;-70
2022/04/10 04:50:36;;;;;;;5.05;1.95;;;;;;;;;;5127100;27;20040;-69
2022/04/10 04:53:04;;;;;;;4.78;2.40;;;;;;;;;;5128859;27;20134;-70
2022/04/10 04:55:33;;;;;;;3.75;2.03;;;;;;;;;;5131430;27;20096;-70
2022/04/10 04:58:01;;;;;;;7.70;2.53;;;;;;;;;;5125117;27;20138;-70
2022/04/10 05:00:29;;;;;;;3.67;2.03;;;;;;;;;;5129752;27;20143;-71
2022/04/10 05:02:57;;;;;;;2.97;2.00;;;;;;;;;;5120936;27;20442;-70
2022/04/10 05:05:26;;;;;;;6.65;2.30;;;;;;;;;;5113978;27;20130;-70
2022/04/10 05:07:55;;;;;;;3.65;2.30;;;;;;;;;;5128759;27;20129;-70
2022/04/10 05:10:24;;;;;;;6.63;2.47;;;;;;;;;;5131191;27;20051;-70
2022/04/10 05:12:52;;;;;;;5.18;2.40;;;;;;;;;;5125314;27;20116;-70
2022/04/10 05:15:20;;;;;;;5.43;2.25;;;;;;;;;;5121298;27;20048;-70
2022/04/10 05:17:48;;;;;;;5.65;2.45;;;;;;;;;;5124289;27;20546;-69
2022/04/10 05:20:17;;;;;;;5.50;2.25;;;;;;;;;;5110675;27;20245;-70
2022/04/10 05:22:45;;;;;;;4.28;2.10;;;;;;;;;;5119699;27;20043;-69
2022/04/10 05:25:15;;;;;;;8.15;2.88;;;;;;;;;;5119714;27;20194;-69
2022/04/10 05:27:43;;;;;;;6.28;2.47;;;;;;;;;;5126047;27;20086;-70
2022/04/10 05:30:12;;;;;;;5.68;2.35;;;;;;;;;;5128316;27;20051;-69
2022/04/10 05:32:42;;;;;;;4.00;2.22;;;;;;;;;;5122443;27;20039;-70
2022/04/10 05:35:11;;;;;;;3.67;2.47;;;;;;;;;;5111534;27;20134;-70
2022/04/10 05:37:39;;;;;;;4.25;2.42;;;;;;;;;;5116515;27;20046;-70
2022/04/10 05:40:08;;;;;;;7.45;2.70;;;;;;;;;;5114820;27;20126;-70
2022/04/10 05:42:40;;;;;;;4.70;2.25;;;;;;;;;;5118756;27;20047;-70
2022/04/10 05:45:09;;;;;;;5.55;2.63;;;;;;;;;;5130448;27;20061;-70
2022/04/10 05:47:39;;;;;;;6.78;2.65;;;;;;;;;;5112310;27;20123;-70
2022/04/10 05:50:07;;;;;;;4.07;2.88;;;;;;;;;;5122141;27;20051;-70
2022/04/10 05:52:38;;;;;;;4.03;2.72;;;;;;;;;;5121360;27;20502;-71
2022/04/10 05:55:07;;;;;;;4.95;2.40;;;;;;;;;;5127860;27;20051;-70
2022/04/10 05:57:36;;;;;;;4.88;2.45;;;;;;;;;;5119046;27;20046;-71
2022/04/10 06:00:07;;;;;;;6.00;2.83;;;;;;;;;;5106855;28;20134;-70
2022/04/10 06:02:35;;;;;;;11.07;3.22;;;;;;;;;;5109490;27;20054;-70
2022/04/10 06:05:04;;;;;;;4.88;2.72;;;;;;;;;;5126401;27;20055;-70
2022/04/10 06:07:32;;;;;;;5.03;3.25;;;;;;;;;;5109869;27;20047;-70
2022/04/10 06:10:01;;;;;;;4.13;2.55;;;;;;;;;;5117907;27;20070;-71
2022/04/10 06:12:29;;;;;;;6.38;2.60;;;;;;;;;;5112528;27;20506;-70
2022/04/10 06:14:57;;;;;;;5.80;2.80;;;;;;;;;;5120065;27;20505;-70
2022/04/10 06:17:27;;;;;;;4.57;2.40;;;;;;;;;;5110122;27;20142;-71
2022/04/10 06:19:55;;;;;;;3.65;2.40;;;;;;;;;;5114656;27;20043;-71
2022/04/10 06:22:24;;;;;;;3.65;2.50;;;;;;;;;;5124634;27;20142;-71
2022/04/10 06:24:52;;;;;;;4.25;2.80;;;;;;;;;;5111684;27;20134;-71
2022/04/10 06:27:21;;;;;;;5.10;2.70;;;;;;;;;;5109095;27;20047;-71
2022/04/10 06:29:49;;;;;;;4.20;2.67;;;;;;;;;;5120339;27;20302;-71
2022/04/10 06:32:19;;;;;;;6.82;3.20;;;;;;;;;;5112050;27;20047;-71
2022/04/10 06:34:49;;;;;;;7.82;2.95;;;;;;;;;;5126459;27;20120;-71
2022/04/10 06:37:17;;;;;;;6.28;2.70;;;;;;;;;;5120875;27;20134;-71
2022/04/10 06:39:45;;;;;;;8.15;3.45;;;;;;;;;;5106507;27;20074;-71
2022/04/10 06:42:14;;;;;;;5.63;2.50;;;;;;;;;;5106882;27;20040;-71
2022/04/10 06:44:42;;;;;;;4.20;2.60;;;;;;;;;;5111374;27;20731;-71
2022/04/10 06:47:10;;;;;;;5.90;3.10;;;;;;;;;;5117180;27;20109;-71
2022/04/10 06:49:39;;;;;;;4.68;2.85;;;;;;;;;;5121698;27;20046;-71
2022/04/10 06:52:09;;;;;;;4.93;2.50;;;;;;;;;;5126305;27;20047;-71
2022/04/10 06:54:37;;;;;;;4.10;2.63;;;;;;;;;;5126159;27;20074;-71
2022/04/10 06:57:05;;;;;;;4.50;2.92;;;;;;;;;;5115020;27;20044;-71
2022/04/10 06:59:33;;;;;;;6.35;3.05;;;;;;;;;;5119747;27;20158;-72
2022/04/10 07:02:02;;;;;;;5.43;3.08;;;;;;;;;;5121290;27;20562;-72
2022/04/10 07:04:31;;;;;;;4.53;2.85;;;;;;;;;;5123776;27;20047;-72
2022/04/10 07:06:59;;;;;;;5.68;2.80;;;;;;;;;;5122577;27;20074;-72
2022/04/10 07:09:29;;;;;;;5.97;2.85;;;;;;;;;;5110055;27;20050;-71
2022/04/10 07:11:57;;;;;;;4.78;2.90;;;;;;;;;;5125859;27;20054;-71
2022/04/10 07:14:25;;;;;;;10.75;3.60;;;;;;;;;;5118286;27;20039;-71
2022/04/10 07:16:54;;;;;;;6.05;3.22;;;;;;;;;;5105900;27;20135;-71
2022/04/10 07:19:22;;;;;;;10.15;3.13;;;;;;;;;;5106193;28;20044;-71
2022/04/10 07:24:38;;;;;;;7.25;3.35;;;;;;;;;;5120981;27;20104;-72
2022/04/10 07:27:07;;;;;;;6.75;2.90;;;;;;;;;;5113797;28;20050;-72
2022/04/10 07:29:35;;;;;;;8.48;3.97;;;;;;;;;;5115351;28;20123;-70
2022/04/10 07:32:05;;;;;;;5.75;3.70;;;;;;;;;;5110035;28;20043;-72
2022/04/10 07:34:33;;;;;;;9.57;3.50;;;;;;;;;;5108632;28;20397;-71
2022/04/10 07:37:01;;;;;;;6.55;3.65;;;;;;;;;;5126123;28;20130;-71
2022/04/10 07:39:30;;;;;;;6.65;3.70;;;;;;;;;;5104758;28;20047;-71
2022/04/10 07:41:59;;;;;;;5.68;3.22;;;;;;;;;;5106637;28;20108;-71
2022/04/10 07:44:48;;;;;;;6.53;3.30;;;;;;;;;;5106283;28;20054;-70
2022/04/10 07:47:27;;;;;;;5.63;3.47;;;;;;;;;;5112545;28;20079;-72
2022/04/10 07:49:56;;;;;;;5.88;3.25;;;;;;;;;;5118650;28;20070;-73
2022/04/10 07:52:24;;;;;;;6.28;3.08;;;;;;;;;;5122811;28;20047;-73
2022/04/10 07:54:53;;;;;;;8.23;3.47;;;;;;;;;;5113896;28;20054;-72
2022/04/10 07:57:22;;;;;;;8.27;3.17;;;;;;;;;;5106046;27;20142;-72
2022/04/10 07:59:51;;;;;;;5.78;2.92;;;;;;;;;;5118466;28;20046;-72
2022/04/10 08:02:19;;;;;;;7.72;3.08;;;;;;;;;;5116525;28;20075;-72
2022/04/10 08:04:48;;;;;;;6.78;3.22;;;;;;;;;;5114148;27;20039;-73
2022/04/10 08:07:16;;;;;;;5.80;3.17;;;;;;;;;;5109484;28;20174;-73
2022/04/10 08:09:45;;;;;;;4.05;2.65;;;;;;;;;;5114761;28;20155;-71
2022/04/10 08:12:13;;;;;;;7.75;2.85;;;;;;;;;;5125736;27;20082;-73
2022/04/10 08:14:43;;;;;;;4.38;2.53;;;;;;;;;;5110414;28;20126;-72
2022/04/10 08:17:12;;;;;;;7.43;2.75;;;;;;;;;;5116912;27;20058;-72
2022/04/10 08:19:40;;;;;;;4.72;2.70;;;;;;;;;;5121643;27;20043;-72
2022/04/10 08:22:08;;;;;;;6.22;2.75;;;;;;;;;;5116822;27;20122;-71
2022/04/10 08:24:37;;;;;;;6.95;2.38;;;;;;;;;;5119138;27;20094;-71
2022/04/10 08:27:05;;;;;;;8.25;3.08;;;;;;;;;;5129232;27;20092;-72
2022/04/10 08:29:34;;;;;;;5.68;2.60;;;;;;;;;;5120774;27;20508;-72
2022/04/10 08:32:04;;;;;;;7.05;2.53;;;;;;;;;;5113405;27;20043;-72
2022/04/10 08:34:32;;;;;;;4.82;2.30;;;;;;;;;;5119090;27;20135;-72
2022/04/10 08:37:04;;;;;;;4.47;2.42;;;;;;;;;;5124659;27;20043;-72
2022/04/10 08:39:33;;;;;;;5.65;2.90;;;;;;;;;;5112077;27;20130;-71
2022/04/10 08:42:02;;;;;;;5.63;2.50;;;;;;;;;;5118392;27;20140;-71
2022/04/10 08:44:36;;;;;;;7.88;2.63;;;;;;;;;;5116813;27;20047;-69
2022/04/10 08:47:06;;;;;;;6.07;2.63;;;;;;;;;;5111782;27;20130;-69
2022/04/10 08:49:35;;;;;;;7.43;2.85;;;;;;;;;;5111804;27;20582;-70
2022/04/10 08:52:04;;;;;;;7.75;3.17;;;;;;;;;;5107996;27;20552;-70
2022/04/10 08:54:35;;;;;;;6.55;3.40;;;;;;;;;;5115261;27;20058;-71
2022/04/10 08:57:03;;;;;;;3.90;2.03;;;;;;;;;;5111089;27;20051;-71
2022/04/10 08:59:31;;;;;;;5.28;2.50;;;;;;;;;;5109394;27;20399;-71
2022/04/10 09:02:00;;;;;;;3.78;2.08;;;;;;;;;;5118612;27;20051;-70
2022/04/10 09:04:31;;;;;;;6.25;2.70;;;;;;;;;;5114762;27;20055;-71
2022/04/10 09:07:00;;;;;;;6.15;2.30;;;;;;;;;;5122833;27;20415;-71
2022/04/10 09:09:28;;;;;;;4.32;2.40;;;;;;;;;;5110912;27;20055;-72
2022/04/10 09:11:57;;;;;;;6.28;2.22;;;;;;;;;;5119151;27;20104;-71
2022/04/10 09:14:26;;;;;;;4.53;2.30;;;;;;;;;;5124527;27;20134;-71
2022/04/10 09:17:09;;;;;;;6.88;2.50;;;;;;;;;;5121449;27;20051;-70
2022/04/10 09:19:39;;;;;;;3.90;2.05;;;;;;;;;;5115380;27;20138;-71
2022/04/10 09:22:24;;;;;;;5.20;2.67;;;;;;;;;;5120141;27;20226;-73
2022/04/10 09:25:02;;;;;;;3.28;2.30;;;;;;;;;;5127797;27;20082;-71
2022/04/10 09:27:31;;;;;;;6.65;2.30;;;;;;;;;;5123527;27;20097;-72
2022/04/10 09:30:00;;;;;;;4.38;2.53;;;;;;;;;;5119412;27;20043;-71
2022/04/10 09:32:38;;;;;;;3.35;1.85;;;;;;;;;;5123198;27;20100;-72
2022/04/10 09:35:08;;;;;;;5.47;1.75;;;;;;;;;;5108760;27;20062;-71
2022/04/10 09:37:44;;;;;;;3.25;2.10;;;;;;;;;;5114436;27;20109;-72
2022/04/10 09:40:22;;;;;;;5.95;2.47;;;;;;;;;;5106586;27;20055;-72
2022/04/10 09:42:51;;;;;;;6.45;2.30;;;;;;;;;;5110604;27;20669;-71
2022/04/10 09:45:29;;;;;;;6.95;2.53;;;;;;;;;;5113307;27;20071;-71
2022/04/10 09:47:58;;;;;;;4.25;2.00;;;;;;;;;;5113376;27;20491;-72
2022/04/10 09:50:34;;;;;;;3.70;1.90;;;;;;;;;;5112341;27;20123;-72
2022/04/10 09:53:08;;;;;;;6.70;2.10;;;;;;;;;;5125131;27;20043;-72
2022/04/10 09:55:37;;;;;;;5.97;2.05;;;;;;;;;;5116694;27;20047;-72
2022/04/10 09:58:07;;;;;;;4.15;1.98;;;;;;;;;;5113702;27;20444;-72
2022/04/10 10:00:37;;;;;;;3.35;1.90;;;;;;;;;;5119832;27;20574;-72
2022/04/10 10:03:06;;;;;;;7.88;2.50;;;;;;;;;;5124666;27;20047;-71
2022/04/10 10:05:36;;;;;;;2.75;1.70;;;;;;;;;;5110858;27;20075;-71
2022/04/10 10:08:05;;;;;;;3.90;2.10;;;;;;;;;;5116227;27;20071;-71
2022/04/10 10:10:34;;;;;;;3.38;1.85;;;;;;;;;;5109157;27;20098;-72
2022/04/10 10:13:03;;;;;;;3.55;1.77;;;;;;;;;;5119483;27;20059;-71
2022/04/10 10:15:38;;;;;;;3.83;1.60;;;;;;;;;;5108164;27;20086;-71
2022/04/10 10:18:07;;;;;;;3.67;1.80;;;;;;;;;;5115392;27;20048;-71
2022/04/10 10:20:38;;;;;;;4.07;1.70;;;;;;;;;;5115333;27;20046;-71
2022/04/10 10:23:09;;;;;;;3.53;2.00;;;;;;;;;;5122487;27;20047;-71
2022/04/10 10:25:45;;;;;;;2.17;1.52;;;;;;;;;;5123209;27;20476;-71
2022/04/10 10:28:30;;;;;;;4.22;2.13;;;;;;;;;;5124828;27;20134;-72
2022/04/10 10:30:59;;;;;;;;;;;;;;;;;;5112809;27;20043;-72
2022/04/10 10:33:28;;;;;;;3.85;2.25;;;;;;;;;;5124902;27;19923;-72
2022/04/10 10:35:58;;;;;;;4.75;1.35;;;;;;;;;;5119681;27;20134;-73
2022/04/10 10:38:28;;;;;;;2.25;1.48;;;;;;;;;;5108331;27;21471;-73
2022/04/10 10:41:10;;;;;;;2.47;1.50;;;;;;;;;;5112501;27;20153;-74
2022/04/10 10:43:38;;;;;;;5.07;1.80;;;;;;;;;;5124102;27;20043;-72
2022/04/10 10:46:20;;;;;;;2.97;1.80;;;;;;;;;;5113706;27;20421;-72
2022/04/10 10:48:51;;;;;;;3.30;1.67;;;;;;;;;;5111185;27;20040;-71
2022/04/10 10:51:41;;;;;;;2.88;1.70;;;;;;;;;;5118963;27;20040;-72
2022/04/10 10:54:11;;;;;;;3.50;1.50;;;;;;;;;;5118296;27;20053;-72
2022/04/10 10:56:40;;;;;;;3.20;1.83;;;;;;;;;;5115270;27;20042;-73
2022/04/10 10:59:24;;;;;;;2.45;1.80;;;;;;;;;;5118762;27;20165;-72
2022/04/10 11:01:53;;;;;;;3.75;1.67;;;;;;;;;;5117092;27;20116;-73
2022/04/10 11:04:21;;;;;;;5.63;1.88;;;;;;;;;;5109161;27;20490;-72
2022/04/10 11:06:52;;;;;;;3.60;1.40;;;;;;;;;;5108319;27;20138;-72
2022/04/10 11:09:21;;;;;;;3.22;1.80;;;;;;;;;;5113547;27;20130;-72
2022/04/10 11:11:50;;;;;;;2.10;1.60;;;;;;;;;;5115760;27;20166;-72
2022/04/10 11:14:36;;;;;;;4.10;1.45;;;;;;;;;;5111599;27;20045;-73
2022/04/10 11:17:08;;;;;;;2.03;1.50;;;;;;;;;;5107806;27;20105;-72
2022/04/10 11:19:37;;;;;;;2.85;1.50;;;;;;;;;;5120443;27;20082;-72
2022/04/10 11:22:08;;;;;;;1.92;1.35;;;;;;;;;;5115295;27;20043;-73
2022/04/10 11:24:37;;;;;;;3.88;1.80;;;;;;;;;;5107434;27;20579;-72
2022/04/10 11:27:06;;;;;;;3.72;1.55;;;;;;;;;;5112258;28;20047;-71
2022/04/10 11:29:34;;;;;;;3.88;1.40;;;;;;;;;;5111775;28;20043;-72
2022/04/10 11:32:05;;;;;;;3.78;1.52;;;;;;;;;;5107656;28;20159;-72
2022/04/10 11:34:41;;;;;;;4.70;1.92;;;;;;;;;;5113222;28;20048;-70
2022/04/10 11:37:18;;;;;;;3.38;1.60;;;;;;;;;;5113796;28;20487;-72
2022/04/10 11:39:46;;;;;;;3.78;1.63;;;;;;;;;;5110525;28;20479;-72
2022/04/10 11:42:16;;;;;;;2.03;1.60;;;;;;;;;;5117882;28;20081;-73
2022/04/10 11:44:46;;;;;;;3.75;1.92;;;;;;;;;;5116846;28;20047;-71
2022/04/10 11:47:15;;;;;;;2.15;1.67;;;;;;;;;;5118595;27;20053;-72
2022/04/10 11:49:50;;;;;;;2.38;1.55;;;;;;;;;;5113086;27;20053;-72
2022/04/10 11:52:21;;;;;;;3.92;1.80;;;;;;;;;;5114854;27;20069;-70
2022/04/10 11:54:51;;;;;;;5.20;1.75;;;;;;;;;;5123635;27;20043;-72
2022/04/10 11:57:20;;;;;;;2.42;1.60;;;;;;;;;;5129079;27;20055;-71
2022/04/10 11:59:48;;;;;;;2.97;1.67;;;;;;;;;;5128879;27;20051;-71
2022/04/10 12:02:17;;;;;;;3.10;1.45;;;;;;;;;;5128819;27;20062;-71
2022/04/10 12:04:49;;;;;;;2.17;1.55;;;;;;;;;;5118861;27;20043;-71
2022/04/10 12:07:18;;;;;;;2.80;1.67;;;;;;;;;;5120386;27;20264;-71
2022/04/10 12:09:49;;;;;;;3.45;1.73;;;;;;;;;;5112667;27;20071;-74
2022/04/10 12:12:17;;;;;;;2.45;1.63;;;;;;;;;;5124149;27;20062;-71
2022/04/10 12:14:46;;;;;;;1.95;1.60;;;;;;;;;;5113137;28;20043;-72
2022/04/10 12:17:19;;;;;;;2.08;1.52;;;;;;;;;;5117720;27;20047;-71
2022/04/10 12:19:47;;;;;;;3.05;1.65;;;;;;;;;;5115367;27;20078;-71
2022/04/10 12:22:22;;;;;;;4.63;1.83;;;;;;;;;;5109560;27;20370;-72
2022/04/10 12:24:57;;;;;;;3.75;1.80;;;;;;;;;;5115534;27;20126;-73
2022/04/10 12:27:26;;;;;;;2.35;1.70;;;;;;;;;;5123358;27;20063;-73
2022/04/10 12:29:55;;;;;;;4.25;2.03;;;;;;;;;;5131430;27;20126;-73
2022/04/10 12:32:24;;;;;;;3.97;2.22;;;;;;;;;;5118532;27;20055;-72
2022/04/10 12:34:53;;;;;;;4.55;1.83;;;;;;;;;;5126288;27;20044;-71
2022/04/10 12:37:21;;;;;;;3.28;1.73;;;;;;;;;;5115509;27;20059;-72
2022/04/10 12:40:00;;;;;;;3.70;2.08;;;;;;;;;;5125161;27;20075;-70
2022/04/10 12:42:38;;;;;;;7.55;2.63;;;;;;;;;;5123098;27;20433;-71
2022/04/10 12:45:08;;;;;;;4.53;2.10;;;;;;;;;;5115396;27;21938;-71
2022/04/10 12:47:40;;;;;;;5.75;2.08;;;;;;;;;;5115661;27;20406;-71
2022/04/10 12:50:09;;;;;;;3.53;2.00;;;;;;;;;;5127265;27;20608;-71
2022/04/10 12:52:39;;;;;;;4.32;1.80;;;;;;;;;;5119597;27;20051;-71
2022/04/10 12:55:19;;;;;;;5.15;1.90;;;;;;;;;;5133633;27;20451;-71
2022/04/10 12:57:58;;;;;;;4.45;1.92;;;;;;;;;;5119582;27;20058;-72
2022/04/10 13:00:27;;;;;;;4.25;1.63;;;;;;;;;;5088191;27;20067;-73
2022/04/10 13:02:56;;;;;;;4.30;1.67;;;;;;;;;;5125873;27;20067;-72
2022/04/10 13:05:24;;;;;;;4.70;1.98;;;;;;;;;;5125314;27;20054;-72
2022/04/10 13:07:56;;;;;;;4.72;1.80;;;;;;;;;;5125262;27;20165;-73
2022/04/10 13:10:26;;;;;;;6.50;2.20;;;;;;;;;;5123660;27;20083;-73
2022/04/10 13:13:08;;;;;;;3.78;2.20;;;;;;;;;;5123606;27;20340;-72
2022/04/10 13:15:37;;;;;;;3.13;1.75;;;;;;;;;;5121207;27;20139;-72
2022/04/10 13:18:06;;;;;;;7.05;2.47;;;;;;;;;;5112829;27;20647;-72
2022/04/10 13:20:37;;;;;;;4.38;1.67;;;;;;;;;;5116562;27;20455;-72
2022/04/10 13:23:06;;;;;;;2.58;1.80;;;;;;;;;;5124841;27;20375;-73
2022/04/10 13:25:36;;;;;;;2.90;2.15;;;;;;;;;;5119144;27;20044;-71
2022/04/10 13:28:05;;;;;;;7.95;2.00;;;;;;;;;;5118022;27;20054;-69
2022/04/10 13:30:39;;;;;;;;;;;;;;;;;;5130755;27;20478;-72
2022/04/10 13:33:08;;;;;;;5.82;2.00;;;;;;;;;;5128171;27;19923;-72
2022/04/10 13:35:36;;;;;;;3.35;2.05;;;;;;;;;;5121346;27;20063;-70
2022/04/10 13:38:05;;;;;;;5.07;2.20;;;;;;;;;;5116588;27;20052;-70
2022/04/10 13:40:33;;;;;;;2.95;2.05;;;;;;;;;;5127824;27;20450;-72
2022/04/10 13:43:03;;;;;;;4.75;1.73;;;;;;;;;;5131066;27;20058;-72
2022/04/10 13:45:32;;;;;;;6.10;2.17;;;;;;;;;;5120393;27;20143;-71
2022/04/10 13:48:03;;;;;;;3.67;2.10;;;;;;;;;;5115341;27;20051;-71
2022/04/10 13:50:31;;;;;;;4.25;2.65;;;;;;;;;;5112008;27;20082;-72
2022/04/10 13:53:00;;;;;;;4.65;2.15;;;;;;;;;;5114801;27;20050;-70
2022/04/10 13:55:28;;;;;;;4.50;2.22;;;;;;;;;;5116691;27;20043;-72
2022/04/10 13:57:57;;;;;;;4.40;2.08;;;;;;;;;;5124469;27;20051;-71
2022/04/10 14:00:27;;;;;;;2.83;1.90;;;;;;;;;;5125678;27;20058;-70
2022/04/10 14:02:55;;;;;;;16.90;4.00;;;;;;;;;;5118797;27;20051;-72
2022/04/10 14:05:24;;;;;;;5.40;1.92;;;;;;;;;;5111573;27;20043;-72
2022/04/10 14:07:52;;;;;;;2.78;1.50;;;;;;;;;;5118493;27;20145;-72
2022/04/10 14:10:21;;;;;;;3.85;1.65;;;;;;;;;;5127104;27;20112;-71
2022/04/10 14:12:49;;;;;;;3.75;1.60;;;;;;;;;;5126918;27;20046;-72
2022/04/10 14:15:18;;;;;;;3.53;2.03;;;;;;;;;;5122922;27;20065;-69
2022/04/10 14:17:50;;;;;;;3.33;2.40;;;;;;;;;;5126600;27;20123;-70
2022/04/10 14:20:18;;;;;;;4.90;2.10;;;;;;;;;;5124735;27;20150;-72
2022/04/10 14:22:47;;;;;;;3.83;2.13;;;;;;;;;;5127581;27;20191;-71
2022/04/10 14:25:15;;;;;;;3.75;1.95;;;;;;;;;;5126067;27;20048;-71
2022/04/10 14:27:43;;;;;;;5.05;2.13;;;;;;;;;;5113959;27;20070;-71
2022/04/10 14:30:12;;;;;;;3.70;2.08;;;;;;;;;;5121921;27;20089;-71
2022/04/10 14:32:40;;;;;;;2.55;1.60;;;;;;;;;;5124035;27;20188;-72
2022/04/10 14:35:10;;;;;;;2.72;1.92;;;;;;;;;;5125106;27;20145;-72
2022/04/10 14:37:39;;;;;;;2.72;2.00;;;;;;;;;;5124502;27;20117;-72
2022/04/10 14:40:07;;;;;;;3.05;2.15;;;;;;;;;;5121789;27;20121;-72
2022/04/10 14:42:36;;;;;;;3.53;2.10;;;;;;;;;;5116766;27;20465;-71
2022/04/10 14:45:04;;;;;;;4.22;2.45;;;;;;;;;;5121774;27;20043;-72
2022/04/10 14:47:33;;;;;;;3.72;2.42;;;;;;;;;;5127798;27;20051;-71
2022/04/10 14:50:01;;;;;;;4.20;2.00;;;;;;;;;;5114201;27;20086;-71
2022/04/10 14:52:31;;;;;;;4.50;2.30;;;;;;;;;;5115940;27;20086;-71
2022/04/10 14:54:59;;;;;;;5.72;2.22;;;;;;;;;;5112008;27;20070;-71
2022/04/10 15:00:50;;;;;;;3.60;1.80;;;;;;;;;;5115851;27;20117;-71
2022/04/10 15:03:19;;;;;;;3.97;2.35;;;;;;;;;;5127659;27;20069;-71